Myrtle Beach International Airport
KMYR : now visible

Airfield :











YOU CAN JOIN US ON...

 
LOGIN :

Register | Disclaimer

   EN    FR    IT 

 









Legend :    VFR   Marginal VFR   IFR   Intensive IFR   Very Intensive IFR
Visi :
Ceiling :
>= 8 km
>= 3000ft
5 to 8 km
1000 to 3000 ft
1500m to 5 km
500 to 1000 ft
800 to 1500m
200 to 500 ft
< 800m
< 200 ft
Symbols :   Thunderstorms  Fog  Heavy snow  Heavy precipitations  Wind > 20 kt







- Airport Elevation : 25 ft
- IATA code : MYR


KMYR - Myrtle Beach International

CURRENT METAR :
  • 230856Z AUTO 20003KT 10SM CLR 26/24 A3002 RMK AO2 SLP166 T02610244 56007

EXPIRED METARs :
  • 230756Z AUTO 24003KT 10SM CLR 27/24 A3003 RMK AO2 SLP168 T02670244
  • 230656Z AUTO 20006KT 10SM CLR 27/24 A3003 RMK AO2 SLP169 T02670244

TAF KMYR
Valid from the 23 at 06:00 until the 24 at 06:00 UTC


230520Z 2306/2406 21008KT P6SM SCT250
FM231700 19012KT P6SM FEW050
FM240200 20008KT P6SM BKN200
No reported NOTAMs for that airfield.



MET'MAP, your aeronautical weather chart ! - Copyright ORBIFLY December 2007 - Disclaimer

ORBIFLY MET'MAP TEAM :

Programming & Development : Alexandra Zaïnal
Concept & Development : Baudouin d'Aumeries
Co-Development & Prog : Marc-Olivier Méhu
Technical & hardware support : Manuel Goepfert

Contact : metmap@orbifly.com




SOURCES & CREDITS :

   NOAA       Earth
Advisory